Time;durP1;ratioP1;P1;durP2;ratioP2;P2;SDS_P1;SDS_P2;PMS_P1;PMS_P2;Temp;Humidity;BMP_temperature;BMP_pressure;BME280_temperature;BME280_humidity;BME280_pressure;Samples;Min_cycle;Max_cycle;Signal;HPM_P1;HPM_P2
2023/09/04 08:23:24;;;;;;;6.68;6.18;;;19.60;99.90;;;;;;6273856;22;20047;-94
2023/09/04 08:25:58;;;;;;;6.90;6.20;;;19.90;99.90;;;;;;6247197;22;20015;-96
2023/09/04 08:28:23;;;;;;;7.75;5.82;;;20.10;99.90;;;;;;6261875;22;20038;-96
2023/09/04 08:30:49;;;;;;;6.85;6.22;;;20.00;99.90;;;;;;6265355;22;20019;-96
2023/09/04 08:33:15;;;;;;;7.13;6.53;;;20.30;99.90;;;;;;6228374;22;20344;-92
2023/09/04 08:35:40;;;;;;;6.32;5.72;;;20.10;99.90;;;;;;6273702;22;20436;-92
2023/09/04 08:38:07;;;;;;;7.40;6.25;;;20.30;99.90;;;;;;6249112;22;20456;-91
2023/09/04 08:40:32;;;;;;;6.18;5.57;;;20.50;99.90;;;;;;6274707;22;20015;-93
2023/09/04 08:42:58;;;;;;;6.78;6.10;;;20.60;99.90;;;;;;6273797;22;20015;-91
2023/09/04 08:45:26;;;;;;;9.63;6.07;;;20.60;99.90;;;;;;6244989;22;20015;-92
2023/09/04 08:47:54;;;;;;;8.48;5.40;;;20.60;99.90;;;;;;6217366;22;20062;-90
2023/09/04 08:50:21;;;;;;;5.47;4.97;;;20.60;99.90;;;;;;6280961;22;20012;-95
2023/09/04 08:52:48;;;;;;;6.30;4.80;;;20.70;99.90;;;;;;6282341;22;20551;-91
2023/09/04 08:55:15;;;;;;;5.15;4.03;;;20.70;99.90;;;;;;6245714;22;20015;-91
2023/09/04 08:57:42;;;;;;;4.57;3.72;;;20.70;99.90;;;;;;6245740;22;20018;-94
2023/09/04 09:00:10;;;;;;;4.80;4.05;;;20.80;99.90;;;;;;6278309;22;20027;-93
2023/09/04 09:02:40;;;;;;;3.97;3.60;;;20.80;99.90;;;;;;6279918;22;20016;-95
2023/09/04 09:05:07;;;;;;;4.30;3.90;;;20.90;99.90;;;;;;6250457;22;20018;-94
2023/09/04 09:07:34;;;;;;;;;;;21.10;99.90;;;;;;6247943;22;20008;-92
2023/09/04 09:10:04;;;;;;;4.30;3.90;;;21.30;99.90;;;;;;6249132;22;20024;-96
2023/09/04 09:12:30;;;;;;;4.35;3.58;;;21.30;99.90;;;;;;6258357;22;20016;-95
2023/09/04 09:14:58;;;;;;;4.47;3.88;;;21.40;99.90;;;;;;6225840;22;20445;-96
2023/09/04 09:17:24;;;;;;;3.58;3.28;;;21.30;99.90;;;;;;6257469;22;20012;-94
2023/09/04 09:19:50;;;;;;;4.10;3.80;;;21.60;99.90;;;;;;6235151;22;20012;-96
2023/09/04 09:22:21;;;;;;;4.40;3.40;;;21.80;99.90;;;;;;6230431;22;20401;-94
2023/09/04 09:25:04;;;;;;;3.92;3.25;;;21.80;99.90;;;;;;6280100;22;20087;-96
2023/09/04 09:27:34;;;;;;;3.67;3.25;;;21.90;99.90;;;;;;6264932;22;20018;-96
2023/09/04 09:30:04;;;;;;;3.88;3.45;;;22.20;99.90;;;;;;6240405;22;20609;-96
2023/09/04 09:32:32;;;;;;;3.30;3.00;;;22.20;99.90;;;;;;6235979;22;20016;-96
2023/09/04 09:35:03;;;;;;;2.92;2.58;;;22.20;99.90;;;;;;6238735;22;20012;-96
2023/09/04 09:37:33;;;;;;;3.42;2.60;;;22.30;99.90;;;;;;6263112;22;20022;-96
2023/09/04 09:39:59;;;;;;;4.88;3.05;;;22.30;99.90;;;;;;6240312;22;20012;-96
2023/09/04 09:42:26;;;;;;;3.85;3.40;;;22.40;99.90;;;;;;6248967;22;20051;-96
2023/09/04 09:44:55;;;;;;;3.63;3.00;;;22.30;99.90;;;;;;6242330;22;20012;-96
2023/09/04 09:47:21;;;;;;;3.03;2.80;;;22.40;99.90;;;;;;6266406;22;20015;-96
2023/09/04 09:49:50;;;;;;;3.00;2.63;;;22.40;99.90;;;;;;6238597;22;20073;-96
2023/09/04 09:52:16;;;;;;;3.92;2.80;;;22.40;99.90;;;;;;6262187;22;20026;-96
2023/09/04 09:54:47;;;;;;;3.20;2.90;;;22.60;99.90;;;;;;6263070;22;20023;-96
2023/09/04 09:57:15;;;;;;;3.80;2.40;;;22.50;99.90;;;;;;6239665;22;20019;-96
2023/09/04 09:59:49;;;;;;;3.78;2.75;;;22.60;99.90;;;;;;6239411;22;20000;-96
2023/09/04 10:02:24;;;;;;;2.97;2.45;;;22.70;99.90;;;;;;6237973;22;20091;-96
2023/09/04 10:04:50;;;;;;;4.47;2.70;;;22.80;99.90;;;;;;6262796;22;20011;-96
2023/09/04 10:07:37;;;;;;;3.88;2.60;;;23.10;99.90;;;;;;6237833;22;20023;-96
2023/09/04 10:10:05;;;;;;;;;;;23.10;99.90;;;;;;6239010;22;20012;-96
2023/09/04 10:12:35;;;;;;;3.28;2.47;;;23.70;99.90;;;;;;6240012;22;19986;-96
2023/09/04 10:15:05;;;;;;;3.50;2.58;;;23.90;99.90;;;;;;6257019;22;20019;-96
2023/09/04 10:17:37;;;;;;;3.13;2.50;;;23.90;99.90;;;;;;6261437;22;20008;-96
2023/09/04 10:20:10;;;;;;;2.70;2.20;;;23.40;99.90;;;;;;6258101;22;20018;-96
2023/09/04 10:23:08;;;;;;;3.38;1.90;;;23.50;99.90;;;;;;6237801;22;20016;-96
2023/09/04 10:25:48;;;;;;;4.03;2.22;;;23.80;99.90;;;;;;6240498;22;20024;-96
2023/09/04 10:28:29;;;;;;;5.40;2.60;;;23.90;99.90;;;;;;6259025;22;20086;-96
2023/09/04 10:31:04;;;;;;;;;;;23.70;99.90;;;;;;6269718;22;20441;-95
2023/09/04 10:33:30;;;;;;;2.70;2.30;;;23.90;99.90;;;;;;6228350;22;19922;-94
2023/09/04 10:35:58;;;;;;;2.22;2.03;;;23.50;99.90;;;;;;6255992;22;20079;-96
2023/09/04 10:38:24;;;;;;;2.50;2.10;;;23.70;99.90;;;;;;6260732;22;20007;-96
2023/09/04 10:40:51;;;;;;;3.25;2.40;;;23.70;99.90;;;;;;6234593;22;20039;-95
2023/09/04 10:43:17;;;;;;;2.20;2.00;;;23.60;99.90;;;;;;6227200;22;20019;-96
2023/09/04 10:46:02;;;;;;;3.40;2.20;;;23.90;99.90;;;;;;6225583;22;20007;-96
2023/09/04 10:48:45;;;;;;;2.78;2.25;;;24.00;99.90;;;;;;6225184;22;20047;-96
2023/09/04 10:51:30;;;;;;;2.40;2.08;;;24.00;99.90;;;;;;6224378;22;20021;-96
2023/09/04 10:53:57;;;;;;;4.07;1.80;;;;;;;;;;6222911;22;20062;-96
2023/09/04 10:56:22;;;;;;;3.20;2.00;;;24.10;99.90;;;;;;6250167;22;20484;-96
2023/09/04 10:59:05;;;;;;;2.90;2.35;;;24.10;99.90;;;;;;6225359;22;20234;-96
2023/09/04 11:01:39;;;;;;;1.80;1.70;;;24.40;99.90;;;;;;6224232;22;20012;-96
2023/09/04 11:04:07;;;;;;;1.85;1.52;;;24.30;99.90;;;;;;6224844;22;20008;-96
2023/09/04 11:07:02;;;;;;;2.95;1.75;;;;;;;;;;6223041;22;20043;-96
2023/09/04 11:09:31;;;;;;;1.75;1.60;;;24.30;99.90;;;;;;6224483;22;20007;-96
2023/09/04 11:11:57;;;;;;;1.90;1.40;;;;;;;;;;6223317;22;20034;-96
2023/09/04 11:14:32;;;;;;;1.45;1.02;;;;;;;;;;6249206;22;20019;-96
2023/09/04 11:17:04;;;;;;;2.17;1.55;;;;;;;;;;6250143;22;20083;-96
2023/09/04 11:19:30;;;;;;;2.20;2.00;;;24.80;99.90;;;;;;6252222;22;20043;-96
2023/09/04 11:21:56;;;;;;;3.00;1.50;;;24.70;99.90;;;;;;6249959;22;20007;-92
2023/09/04 11:24:22;;;;;;;1.67;1.50;;;24.90;99.90;;;;;;6223960;22;20030;-96
2023/09/04 11:26:48;;;;;;;1.60;1.50;;;24.80;99.90;;;;;;6226874;22;20016;-96
2023/09/04 11:29:16;;;;;;;2.95;1.60;;;24.80;99.90;;;;;;6262871;22;20093;-96
2023/09/04 11:31:42;;;;;;;1.45;1.35;;;24.90;99.90;;;;;;6229237;22;20026;-96
2023/09/04 11:34:07;;;;;;;2.00;1.35;;;25.00;99.90;;;;;;6252793;22;20043;-96
2023/09/04 11:36:37;;;;;;;2.72;1.73;;;25.10;99.90;;;;;;6224498;22;20458;-96
2023/09/04 11:39:05;;;;;;;2.35;1.48;;;24.90;99.90;;;;;;6249589;22;20012;-96
2023/09/04 11:41:31;;;;;;;2.53;1.50;;;25.00;99.90;;;;;;6222953;22;20016;-96
2023/09/04 11:43:56;;;;;;;1.40;1.30;;;25.00;99.90;;;;;;6222475;22;20322;-91
2023/09/04 11:46:22;;;;;;;1.52;1.42;;;25.20;99.90;;;;;;6225115;22;20014;-96
2023/09/04 11:48:48;;;;;;;2.78;1.50;;;25.30;99.90;;;;;;6222149;22;20333;-96
2023/09/04 11:51:14;;;;;;;2.25;1.40;;;25.20;99.90;;;;;;6222588;22;20343;-94
2023/09/04 11:53:40;;;;;;;1.63;1.45;;;25.30;99.90;;;;;;6226404;22;20436;-92
2023/09/04 11:56:06;;;;;;;1.92;1.40;;;25.40;99.90;;;;;;6273505;22;20016;-93
2023/09/04 11:58:33;;;;;;;2.53;1.60;;;25.50;99.90;;;;;;6274056;22;20022;-94
2023/09/04 12:00:59;;;;;;;;;;;25.10;99.90;;;;;;6248601;22;20035;-94
2023/09/04 12:03:25;;;;;;;1.77;1.35;;;25.30;99.90;;;;;;6224323;22;20225;-95
2023/09/04 12:05:55;;;;;;;1.60;1.50;;;25.40;99.90;;;;;;6227584;22;20011;-96
2023/09/04 12:08:20;;;;;;;2.28;1.50;;;25.50;99.90;;;;;;6226305;22;20065;-94
2023/09/04 12:10:46;;;;;;;1.40;1.30;;;25.30;99.90;;;;;;6223384;22;20371;-95
2023/09/04 12:13:12;;;;;;;3.42;1.33;;;25.40;99.90;;;;;;6228129;22;20019;-96
2023/09/04 12:15:38;;;;;;;1.98;1.20;;;25.40;99.90;;;;;;6251183;22;20033;-96
2023/09/04 12:18:05;;;;;;;3.53;1.50;;;25.40;99.90;;;;;;6227893;22;20516;-96
2023/09/04 12:20:37;;;;;;;1.50;1.40;;;25.40;99.90;;;;;;6241646;22;20011;-96
2023/09/04 13:23:52;;;;;;;2.88;1.35;;;26.40;99.30;;;;;;6284604;22;20047;-96
2023/09/04 13:26:19;;;;;;;1.38;1.27;;;26.50;99.80;;;;;;6230033;22;20020;-96
2023/09/04 13:28:45;;;;;;;3.05;1.40;;;26.50;99.60;;;;;;6288408;22;20016;-96
2023/09/04 13:31:13;;;;;;;1.70;1.40;;;26.70;99.20;;;;;;6259291;22;20094;-96
2023/09/04 13:33:39;;;;;;;1.50;1.40;;;26.40;98.70;;;;;;6234718;22;20063;-96
2023/09/04 13:36:05;;;;;;;2.97;1.50;;;26.50;99.00;;;;;;6264815;22;20019;-96
2023/09/04 13:38:31;;;;;;;1.45;1.35;;;26.70;99.80;;;;;;6243835;22;20429;-96
2023/09/04 13:40:57;;;;;;;2.22;1.40;;;26.40;98.40;;;;;;6241087;22;20071;-96
2023/09/04 13:43:22;;;;;;;1.30;1.20;;;26.60;99.60;;;;;;6230269;22;20011;-96
2023/09/04 13:45:49;;;;;;;2.10;1.23;;;26.70;99.90;;;;;;6232009;22;20030;-96
2023/09/04 13:48:14;;;;;;;1.50;1.40;;;26.70;99.20;;;;;;6226434;22;20428;-96
2023/09/04 13:50:40;;;;;;;3.28;1.30;;;26.60;99.60;;;;;;6226435;22;20102;-96
2023/09/04 13:53:06;;;;;;;2.97;1.58;;;26.60;99.00;;;;;;6253404;22;20016;-96
2023/09/04 13:55:32;;;;;;;1.50;1.40;;;26.70;99.70;;;;;;6251415;22;20142;-96
2023/09/04 13:57:58;;;;;;;2.25;1.55;;;26.50;97.90;;;;;;6226295;22;20012;-96
2023/09/04 14:00:24;;;;;;;1.65;1.30;;;26.70;99.50;;;;;;6254053;22;20332;-96
2023/09/04 14:02:54;;;;;;;3.60;1.70;;;26.70;99.20;;;;;;6233154;22;20019;-96
2023/09/04 14:05:19;;;;;;;1.23;1.10;;;26.70;99.10;;;;;;6230162;22;20141;-96
2023/09/04 14:07:45;;;;;;;1.63;1.45;;;26.80;99.20;;;;;;6260268;22;20012;-96
2023/09/04 14:10:11;;;;;;;1.90;1.80;;;26.90;98.90;;;;;;6298527;22;20010;-96
2023/09/04 14:12:40;;;;;;;2.25;1.63;;;26.90;98.60;;;;;;6269809;22;20012;-96
2023/09/04 14:15:06;;;;;;;2.17;1.45;;;27.00;98.30;;;;;;6247674;22;20024;-96
2023/09/04 14:17:32;;;;;;;1.50;1.40;;;27.10;98.70;;;;;;6270093;22;20099;-96
2023/09/04 14:19:58;;;;;;;4.35;1.45;;;27.40;98.90;;;;;;6247137;22;20063;-96
2023/09/04 14:22:26;;;;;;;1.40;1.30;;;27.40;98.50;;;;;;6244414;22;20022;-96
2023/09/04 14:24:52;;;;;;;3.88;1.35;;;27.10;97.30;;;;;;6245694;22;20016;-96
2023/09/04 14:27:18;;;;;;;3.03;1.77;;;27.20;97.80;;;;;;6246062;22;20012;-96
2023/09/04 14:29:44;;;;;;;2.97;2.50;;;27.20;98.40;;;;;;6237367;22;20019;-96
2023/09/04 14:32:10;;;;;;;2.13;1.90;;;27.40;99.00;;;;;;6255014;22;20061;-96
2023/09/04 14:34:36;;;;;;;2.80;1.75;;;27.40;97.90;;;;;;6229037;22;20262;-96
2023/09/04 14:37:02;;;;;;;3.70;1.83;;;27.10;97.70;;;;;;6227206;22;20131;-96
2023/09/04 14:39:27;;;;;;;1.75;1.65;;;27.10;98.00;;;;;;6281849;22;20112;-96
2023/09/04 14:41:54;;;;;;;2.25;1.60;;;27.20;98.00;;;;;;6283806;22;20022;-96
2023/09/04 14:44:19;;;;;;;1.83;1.60;;;27.10;97.90;;;;;;6284283;22;20654;-96
2023/09/04 14:46:45;;;;;;;1.60;1.23;;;27.00;98.00;;;;;;6255817;22;20023;-96
2023/09/04 14:49:11;;;;;;;3.10;1.45;;;27.00;97.80;;;;;;6248960;22;20038;-95
2023/09/04 14:51:37;;;;;;;2.72;1.40;;;27.20;97.80;;;;;;6270379;22;20091;-95
2023/09/04 14:54:03;;;;;;;3.03;1.63;;;27.20;97.50;;;;;;6219127;22;20011;-94
2023/09/04 14:56:28;;;;;;;2.92;1.60;;;27.00;97.30;;;;;;6273319;22;20011;-94
2023/09/04 14:58:55;;;;;;;2.20;1.63;;;26.90;97.80;;;;;;6247316;22;20014;-92
2023/09/04 15:01:22;;;;;;;2.97;1.63;;;26.90;97.40;;;;;;6247129;22;20004;-94
2023/09/04 15:03:48;;;;;;;;;;;26.70;97.60;;;;;;6253767;22;20022;-94
2023/09/04 15:06:14;;;;;;;2.83;1.77;;;26.70;96.80;;;;;;6252000;22;19919;-95
2023/09/04 15:08:41;;;;;;;1.85;1.60;;;26.70;97.70;;;;;;6254964;22;20012;-95
2023/09/04 15:11:10;;;;;;;1.33;1.20;;;27.00;97.70;;;;;;6227371;22;20019;-95
2023/09/04 15:13:36;;;;;;;2.17;1.75;;;27.10;97.70;;;;;;6226688;22;20105;-93
2023/09/04 15:16:03;;;;;;;5.30;3.00;;;26.80;98.00;;;;;;6255324;22;20015;-95
2023/09/04 15:18:31;;;;;;;5.35;3.60;;;27.10;98.20;;;;;;6226009;22;20344;-95
2023/09/04 15:21:02;;;;;;;6.60;2.42;;;27.00;97.80;;;;;;6251797;22;20012;-94
2023/09/04 15:23:28;;;;;;;8.05;2.40;;;27.00;97.20;;;;;;6223735;22;20492;-94
2023/09/04 15:25:57;;;;;;;2.10;1.60;;;27.10;97.40;;;;;;6253116;22;20022;-94
2023/09/04 15:28:24;;;;;;;2.75;1.38;;;27.10;97.70;;;;;;6226239;22;20027;-94
2023/09/04 15:30:50;;;;;;;1.87;1.40;;;26.70;97.30;;;;;;6228147;22;20019;-94
2023/09/04 15:33:16;;;;;;;2.50;1.70;;;26.70;97.60;;;;;;6253481;22;20318;-94
2023/09/04 15:35:43;;;;;;;2.50;1.40;;;26.50;97.60;;;;;;6226665;22;20019;-96
2023/09/04 15:38:10;;;;;;;1.90;1.42;;;;;;;;;;6259428;22;20012;-94
2023/09/04 15:40:36;;;;;;;1.60;1.40;;;26.30;98.00;;;;;;6262063;22;20394;-96
2023/09/04 15:43:03;;;;;;;3.53;1.85;;;26.30;98.20;;;;;;6259736;22;20304;-96
2023/09/04 15:45:28;;;;;;;2.33;1.50;;;26.30;98.10;;;;;;6254491;22;20016;-95
2023/09/04 15:47:54;;;;;;;1.40;1.23;;;26.20;98.10;;;;;;6250667;22;20019;-95
2023/09/04 15:50:20;;;;;;;3.08;1.70;;;26.20;98.10;;;;;;6222960;22;20039;-95
2023/09/04 15:52:46;;;;;;;4.57;2.05;;;26.20;98.60;;;;;;6246592;22;20500;-95
2023/09/04 15:55:12;;;;;;;4.82;1.65;;;26.10;98.20;;;;;;6274813;22;20012;-96
2023/09/04 15:57:38;;;;;;;2.53;1.73;;;26.00;98.30;;;;;;6255212;22;20011;-96
2023/09/04 16:00:04;;;;;;;1.90;1.63;;;25.80;98.40;;;;;;6235854;22;20341;-96
2023/09/04 16:02:32;;;;;;;3.35;1.85;;;25.80;98.90;;;;;;6237029;22;19992;-96
2023/09/04 16:04:59;;;;;;;;;;;;;;;;;;6236616;22;20015;-96
2023/09/04 16:07:33;;;;;;;2.20;1.77;;;25.90;99.90;;;;;;6284863;22;20406;-96
2023/09/04 16:09:59;;;;;;;3.38;1.70;;;25.70;99.90;;;;;;6284436;22;20050;-96
2023/09/04 16:12:25;;;;;;;4.03;1.80;;;25.60;99.90;;;;;;6233104;22;20166;-96
2023/09/04 16:14:51;;;;;;;1.80;1.70;;;25.60;99.90;;;;;;6261251;22;20019;-96
2023/09/04 16:17:18;;;;;;;2.50;1.90;;;25.80;99.90;;;;;;6266358;22;20027;-95
2023/09/04 16:19:44;;;;;;;1.90;1.70;;;25.70;99.70;;;;;;6265861;22;20027;-95
2023/09/04 16:22:10;;;;;;;2.03;1.52;;;25.80;99.90;;;;;;6239643;22;20015;-96
2023/09/04 16:24:36;;;;;;;2.53;1.73;;;25.70;99.80;;;;;;6237766;22;20019;-96
2023/09/04 16:27:02;;;;;;;1.75;1.65;;;25.70;99.90;;;;;;6230189;22;20018;-95
2023/09/04 16:29:28;;;;;;;2.67;1.52;;;25.70;99.90;;;;;;6281428;22;20016;-96
2023/09/04 16:31:53;;;;;;;2.83;1.60;;;25.60;99.90;;;;;;6277844;22;20012;-95
2023/09/04 16:34:19;;;;;;;2.30;1.50;;;25.70;99.90;;;;;;6251787;22;20020;-96
2023/09/04 16:36:45;;;;;;;2.78;1.67;;;25.60;99.90;;;;;;6227782;22;20105;-96
2023/09/04 16:39:11;;;;;;;2.13;1.70;;;25.50;99.90;;;;;;6235541;22;20011;-96
2023/09/04 16:41:38;;;;;;;3.22;2.20;;;;;;;;;;6235032;22;20068;-96
2023/09/04 16:44:04;;;;;;;5.28;2.95;;;25.20;99.90;;;;;;6257806;22;20043;-96
2023/09/04 16:46:30;;;;;;;4.57;3.30;;;25.00;99.90;;;;;;6263254;22;20015;-96
2023/09/04 16:48:57;;;;;;;4.10;3.80;;;24.90;99.90;;;;;;6234631;22;20113;-96
2023/09/04 16:51:23;;;;;;;4.67;4.20;;;24.80;99.90;;;;;;6260443;22;20291;-96
2023/09/04 16:53:49;;;;;;;4.30;3.90;;;24.70;99.90;;;;;;6266970;22;20015;-96
2023/09/04 16:56:15;;;;;;;4.32;3.83;;;24.60;99.90;;;;;;6264852;22;20015;-96
2023/09/04 16:58:41;;;;;;;4.55;3.90;;;24.50;99.90;;;;;;6241127;22;20042;-96
2023/09/04 17:01:09;;;;;;;4.40;3.33;;;24.40;99.90;;;;;;6235123;22;20016;-96
2023/09/04 17:03:35;;;;;;;5.75;2.92;;;24.30;99.90;;;;;;6235424;22;20053;-96
2023/09/04 17:06:01;;;;;;;2.58;2.33;;;24.20;99.90;;;;;;6233644;22;20153;-96
2023/09/04 17:08:29;;;;;;;2.28;2.08;;;24.20;99.90;;;;;;6234679;22;20011;-96
2023/09/04 17:10:59;;;;;;;2.22;2.03;;;24.10;99.90;;;;;;6239420;22;20019;-96
2023/09/04 17:21:16;;;;;;;2.25;1.75;;;23.80;99.90;;;;;;6293274;22;20016;-96
2023/09/04 17:23:42;;;;;;;3.35;1.80;;;23.70;99.90;;;;;;6251272;22;20063;-96
2023/09/04 17:26:08;;;;;;;2.05;1.90;;;23.50;99.90;;;;;;6269136;22;20027;-96
2023/09/04 17:28:37;;;;;;;3.70;2.20;;;23.50;99.90;;;;;;6261026;22;20016;-96
